Time;durP1;ratioP1;P1;durP2;ratioP2;P2;SDS_P1;SDS_P2;PMS_P1;PMS_P2;Temp;Humidity;BMP_temperature;BMP_pressure;BME280_temperature;BME280_humidity;BME280_pressure;Samples;Min_cycle;Max_cycle;Signal;HPM_P1;HPM_P2
2022/05/16 00:00:21;;;;;;;12.15;6.07;;;384.90;2329.60;;;;;;5115350;28;20023;-81
2022/05/16 00:02:50;;;;;;;11.95;5.93;;;384.70;2329.60;;;;;;5115259;28;20034;-80
2022/05/16 00:05:16;;;;;;;11.00;6.43;;;384.90;2329.60;;;;;;5114767;28;20028;-80
2022/05/16 00:07:42;;;;;;;13.13;6.72;;;384.70;2329.60;;;;;;5115444;28;20036;-82
2022/05/16 00:10:09;;;;;;;12.50;6.88;;;384.60;2329.60;;;;;;5115341;28;20024;-81
2022/05/16 00:12:35;;;;;;;13.00;6.97;;;384.60;2329.60;;;;;;5115243;28;20055;-79
2022/05/16 00:15:03;;;;;;;16.50;7.15;;;384.10;2329.60;;;;;;5115421;28;20031;-79
2022/05/16 00:17:29;;;;;;;13.43;6.85;;;384.40;2329.60;;;;;;5114790;28;20031;-82
2022/05/16 00:19:54;;;;;;;17.75;7.80;;;384.40;2329.60;;;;;;5115245;28;20371;-81
2022/05/16 00:22:20;;;;;;;16.35;6.78;;;384.20;2329.60;;;;;;5115080;28;20118;-79
2022/05/16 00:24:47;;;;;;;13.48;6.47;;;384.30;2329.60;;;;;;5114747;28;20138;-81
2022/05/16 00:27:12;;;;;;;17.10;7.57;;;384.40;2329.60;;;;;;5115809;28;20023;-81
2022/05/16 00:29:39;;;;;;;16.33;7.32;;;384.20;2329.60;;;;;;5116576;28;20509;-81
2022/05/16 00:32:06;;;;;;;15.25;7.13;;;384.30;2329.60;;;;;;5114673;28;20122;-80
2022/05/16 00:34:32;;;;;;;16.15;6.93;;;384.40;2329.60;;;;;;5114575;28;20028;-83
2022/05/16 00:36:58;;;;;;;17.30;5.68;;;384.40;2329.60;;;;;;5114598;28;20034;-81
2022/05/16 00:39:24;;;;;;;11.45;5.63;;;384.40;2329.60;;;;;;5114165;28;20019;-80
2022/05/16 00:41:51;;;;;;;10.55;4.88;;;384.30;2329.60;;;;;;5114640;28;20351;-81
2022/05/16 00:44:19;;;;;;;12.32;5.03;;;384.30;2329.60;;;;;;5114645;28;20020;-79
2022/05/16 00:46:47;;;;;;;10.48;5.85;;;384.10;2329.60;;;;;;5114213;28;20067;-80
2022/05/16 00:49:22;;;;;;;11.02;6.35;;;384.10;2329.60;;;;;;5113504;28;20031;-81
2022/05/16 00:51:53;;;;;;;11.63;5.55;;;384.10;2329.60;;;;;;5114553;28;20027;-78
2022/05/16 00:54:41;;;;;;;13.23;6.38;;;384.20;2329.60;;;;;;5114156;28;20023;-81
2022/05/16 00:57:14;;;;;;;7.82;4.95;;;384.20;2329.60;;;;;;5114352;28;20058;-80
2022/05/16 01:00:02;;;;;;;11.13;5.18;;;384.20;2329.60;;;;;;5114176;28;20028;-80
2022/05/16 01:05:15;;;;;;;10.10;6.53;;;384.40;2329.60;;;;;;5115371;28;20505;-80
2022/05/16 01:07:43;;;;;;;12.77;6.22;;;384.20;2329.60;;;;;;5113782;28;20381;-80
2022/05/16 01:10:13;;;;;;;13.57;6.50;;;384.00;2329.60;;;;;;5114010;28;20440;-81
2022/05/16 01:12:43;;;;;;;12.32;6.90;;;359.30;2329.60;;;;;;5114025;28;20028;-80
2022/05/16 01:15:13;;;;;;;10.73;6.13;;;359.00;2329.60;;;;;;5113731;28;20069;-80
2022/05/16 01:17:40;;;;;;;13.02;5.60;;;359.20;2329.60;;;;;;5113677;28;20122;-79
2022/05/16 01:20:08;;;;;;;12.90;6.13;;;359.20;2329.60;;;;;;5113855;28;20036;-80
2022/05/16 01:22:39;;;;;;;10.55;6.20;;;358.90;2329.60;;;;;;5113747;28;20050;-81
2022/05/16 01:25:21;;;;;;;12.02;6.65;;;359.10;2329.60;;;;;;5113743;28;20505;-80
2022/05/16 01:27:52;;;;;;;8.27;5.28;;;359.10;2329.60;;;;;;5113484;28;20110;-82
2022/05/16 01:30:22;;;;;;;14.98;5.97;;;359.00;2329.60;;;;;;5113833;28;20028;-82
2022/05/16 01:32:49;;;;;;;11.05;5.78;;;358.90;2329.60;;;;;;5113707;28;20024;-82
2022/05/16 01:35:29;;;;;;;11.48;6.20;;;358.90;2329.60;;;;;;5113335;28;20023;-80
2022/05/16 01:40:40;;;;;;;11.88;6.45;;;358.90;2329.60;;;;;;5114954;28;20050;-80
2022/05/16 01:43:08;;;;;;;11.32;6.45;;;358.90;2329.60;;;;;;5113315;28;20032;-82
2022/05/16 01:45:35;;;;;;;11.68;6.10;;;358.90;2329.60;;;;;;5113292;28;20031;-81
2022/05/16 01:48:01;;;;;;;12.82;6.25;;;359.00;2329.60;;;;;;5114103;28;20484;-81
2022/05/16 01:50:27;;;;;;;10.48;5.97;;;359.00;2329.60;;;;;;5113122;28;20115;-81
2022/05/16 01:52:53;;;;;;;13.88;6.10;;;358.90;2329.60;;;;;;5121624;28;20455;-78
2022/05/16 01:55:20;;;;;;;14.07;6.15;;;359.10;2329.60;;;;;;5130087;28;20030;-81
2022/05/16 01:57:46;;;;;;;11.05;5.80;;;358.90;2329.60;;;;;;5113246;28;20053;-81
2022/05/16 02:00:15;;;;;;;10.77;5.70;;;358.90;2329.60;;;;;;5114432;28;20024;-81
2022/05/16 02:02:42;;;;;;;12.05;7.03;;;359.10;2329.60;;;;;;5112902;28;20027;-79
2022/05/16 02:05:20;;;;;;;12.23;6.28;;;359.00;2329.60;;;;;;5113073;28;20036;-80
2022/05/16 02:07:46;;;;;;;11.18;6.15;;;358.90;2329.60;;;;;;5113126;28;20073;-79
2022/05/16 02:10:17;;;;;;;11.20;6.07;;;358.90;2329.60;;;;;;5112801;28;20383;-80
2022/05/16 02:12:45;;;;;;;9.13;5.70;;;359.10;2329.60;;;;;;5113120;28;20473;-79
2022/05/16 02:15:15;;;;;;;11.35;5.93;;;359.10;2329.60;;;;;;5113031;28;20030;-80
2022/05/16 02:17:41;;;;;;;11.23;5.93;;;359.10;2329.60;;;;;;5114270;28;20066;-82
2022/05/16 02:20:08;;;;;;;12.30;5.78;;;358.90;2329.60;;;;;;5113137;28;20027;-80
2022/05/16 02:25:18;;;;;;;8.35;5.75;;;359.00;2329.60;;;;;;5114024;28;20103;-81
2022/05/16 02:27:46;;;;;;;8.30;6.38;;;359.00;2329.60;;;;;;5112914;28;20118;-80
2022/05/16 02:30:13;;;;;;;10.40;5.97;;;358.90;2329.60;;;;;;5112669;28;20032;-82
2022/05/16 02:32:39;;;;;;;10.13;5.82;;;358.80;2329.60;;;;;;5112899;28;20030;-81
2022/05/16 02:35:05;;;;;;;10.43;6.68;;;358.70;2329.60;;;;;;5112769;28;20035;-81
2022/05/16 02:37:31;;;;;;;12.95;6.47;;;358.60;2329.60;;;;;;5112385;28;20059;-82
2022/05/16 02:39:58;;;;;;;8.48;5.95;;;358.60;2329.60;;;;;;5113813;28;20024;-81
2022/05/16 02:42:24;;;;;;;14.02;6.15;;;358.70;2329.60;;;;;;5112603;28;20035;-82
2022/05/16 02:44:52;;;;;;;12.13;6.00;;;358.80;2329.60;;;;;;5112223;28;20370;-81
2022/05/16 02:47:22;;;;;;;12.60;6.53;;;358.90;2329.60;;;;;;5112617;28;20038;-81
2022/05/16 02:49:49;;;;;;;12.93;5.95;;;358.80;2329.60;;;;;;5113702;28;20103;-80
2022/05/16 02:52:16;;;;;;;10.15;6.10;;;358.60;2329.60;;;;;;5112392;28;20466;-83
2022/05/16 02:54:42;;;;;;;9.25;5.78;;;358.50;2329.60;;;;;;5112609;28;20035;-81
2022/05/16 02:57:08;;;;;;;14.73;7.43;;;358.50;2329.60;;;;;;5112694;28;20028;-81
2022/05/16 02:59:36;;;;;;;13.48;6.93;;;358.40;2329.60;;;;;;5112288;28;20110;-79
2022/05/16 03:02:08;;;;;;;11.30;6.63;;;333.70;2329.60;;;;;;5112566;28;20050;-81
2022/05/16 03:04:35;;;;;;;10.30;6.83;;;358.40;2329.60;;;;;;5112501;28;20501;-82
2022/05/16 03:07:02;;;;;;;9.90;6.25;;;358.50;2329.60;;;;;;5112237;28;20035;-80
2022/05/16 03:09:28;;;;;;;10.43;7.00;;;358.40;2329.60;;;;;;5112458;28;20595;-80
2022/05/16 03:11:55;;;;;;;10.43;6.93;;;307.90;2304.00;;;;;;5113673;28;20458;-81
2022/05/16 03:14:21;;;;;;;12.90;6.70;;;358.40;2329.60;;;;;;5116014;28;20027;-81
2022/05/16 03:16:47;;;;;;;12.07;6.72;;;333.40;2329.60;;;;;;5116337;28;20047;-82
2022/05/16 03:19:14;;;;;;;9.27;5.80;;;333.60;2329.60;;;;;;5115956;28;20024;-81
2022/05/16 03:21:41;;;;;;;9.38;6.10;;;333.60;2329.60;;;;;;5116348;28;20035;-83
2022/05/16 03:24:10;;;;;;;11.25;5.97;;;333.40;2329.60;;;;;;5116194;28;20115;-78
2022/05/16 03:26:37;;;;;;;10.85;6.50;;;333.40;2329.60;;;;;;5115266;28;20048;-78
2022/05/16 03:29:06;;;;;;;9.10;5.22;;;333.50;2329.60;;;;;;5116176;28;20027;-79
2022/05/16 03:31:36;;;;;;;12.82;5.85;;;333.20;2329.60;;;;;;5116083;28;20028;-79
2022/05/16 03:34:03;;;;;;;9.50;5.45;;;333.20;2329.60;;;;;;5115854;28;20033;-80
2022/05/16 03:36:32;;;;;;;11.95;5.90;;;333.10;2329.60;;;;;;5116088;28;20039;-82
2022/05/16 03:41:42;;;;;;;7.70;4.97;;;333.50;2329.60;;;;;;5116903;28;20031;-80
2022/05/16 03:44:08;;;;;;;11.05;5.60;;;333.50;2329.60;;;;;;5116162;28;20024;-81
2022/05/16 03:46:34;;;;;;;8.05;5.38;;;333.40;2329.60;;;;;;5115736;28;20070;-81
2022/05/16 03:49:00;;;;;;;13.15;5.45;;;333.50;2329.60;;;;;;5115497;28;20515;-81
2022/05/16 03:51:29;;;;;;;9.35;5.45;;;333.40;2329.60;;;;;;5115661;28;20031;-80
2022/05/16 03:53:55;;;;;;;9.93;5.53;;;333.50;2329.60;;;;;;5115697;28;20541;-82
2022/05/16 03:56:25;;;;;;;7.97;5.40;;;333.40;2329.60;;;;;;5115256;28;20027;-81
2022/05/16 03:58:51;;;;;;;9.07;5.53;;;333.40;2329.60;;;;;;5116659;28;20032;-81
2022/05/16 04:01:17;;;;;;;13.98;5.78;;;333.50;2329.60;;;;;;5115319;28;20035;-80
2022/05/16 04:03:46;;;;;;;9.63;5.40;;;333.30;2329.60;;;;;;5115653;28;20027;-81
2022/05/16 04:06:16;;;;;;;12.05;6.45;;;333.30;2329.60;;;;;;5115424;27;20465;-81
2022/05/16 04:08:43;;;;;;;10.82;6.88;;;333.30;2329.60;;;;;;5115278;28;20118;-82
2022/05/16 04:11:20;;;;;;;9.90;5.65;;;333.10;2329.60;;;;;;5115309;28;20019;-81
2022/05/16 04:13:47;;;;;;;14.05;5.75;;;333.40;2329.60;;;;;;5115352;28;20390;-83
2022/05/16 04:16:14;;;;;;;8.32;5.70;;;333.50;2329.60;;;;;;5115170;28;20059;-82
2022/05/16 04:18:43;;;;;;;12.02;6.15;;;333.50;2329.60;;;;;;5115412;28;20081;-79
2022/05/16 04:21:10;;;;;;;11.57;5.97;;;333.40;2329.60;;;;;;5115209;28;20027;-81
2022/05/16 04:23:36;;;;;;;10.60;5.03;;;333.40;2329.60;;;;;;5132640;28;20038;-79
2022/05/16 04:26:02;;;;;;;9.57;5.95;;;333.60;2329.60;;;;;;5129948;28;20056;-82
2022/05/16 04:28:28;;;;;;;11.20;6.25;;;333.40;2329.60;;;;;;5115049;28;20031;-81
2022/05/16 04:30:54;;;;;;;9.07;5.50;;;358.50;2329.60;;;;;;5114543;28;20027;-79
2022/05/16 04:33:21;;;;;;;9.68;6.03;;;333.70;2329.60;;;;;;5114764;28;20055;-79
2022/05/16 04:35:49;;;;;;;10.23;5.82;;;333.70;2329.60;;;;;;5114826;28;20394;-80
2022/05/16 04:38:15;;;;;;;13.98;6.47;;;333.70;2329.60;;;;;;5114665;28;20031;-83
2022/05/16 04:43:26;;;;;;;11.73;5.60;;;358.60;2329.60;;;;;;5115824;28;20070;-80
2022/05/16 04:45:52;;;;;;;11.90;5.97;;;358.50;2329.60;;;;;;5115121;28;20027;-81
2022/05/16 04:48:18;;;;;;;16.52;5.82;;;358.70;2329.60;;;;;;5114179;28;20031;-80
2022/05/16 04:50:44;;;;;;;10.63;6.45;;;358.40;2329.60;;;;;;5113531;28;20467;-79
2022/05/16 04:53:10;;;;;;;13.20;6.32;;;358.50;2329.60;;;;;;5115616;28;20024;-81
2022/05/16 04:55:39;;;;;;;13.57;7.30;;;359.00;2329.60;;;;;;5114589;28;20035;-81
2022/05/16 04:58:05;;;;;;;11.73;6.43;;;358.50;2329.60;;;;;;5124135;28;20045;-79
2022/05/16 05:00:31;;;;;;;25.10;7.70;;;358.50;2329.60;;;;;;5127651;28;20038;-82
2022/05/16 05:03:00;;;;;;;15.00;6.50;;;358.50;2329.60;;;;;;5118249;28;20024;-81
2022/05/16 05:05:26;;;;;;;14.35;6.53;;;358.40;2329.60;;;;;;5116764;28;20039;-81
2022/05/16 05:07:52;;;;;;;13.95;6.47;;;358.50;2329.60;;;;;;5117104;28;20020;-80
2022/05/16 05:16:37;;;;;;;11.43;6.18;;;358.60;2329.60;;;;;;5135991;28;20073;-80
2022/05/16 05:19:06;;;;;;;15.38;6.28;;;358.80;2329.60;;;;;;5112070;28;20109;-79
2022/05/16 05:21:32;;;;;;;12.93;7.57;;;358.90;2329.60;;;;;;5092274;28;20038;-80
2022/05/16 05:24:01;;;;;;;20.05;8.55;;;359.00;2329.60;;;;;;5092968;28;20541;-81
2022/05/16 05:26:27;;;;;;;22.35;8.60;;;359.00;2329.60;;;;;;5113885;28;20048;-80
2022/05/16 05:28:53;;;;;;;13.80;7.68;;;359.10;2329.60;;;;;;5114306;28;20027;-82
2022/05/16 05:31:20;;;;;;;17.00;7.55;;;359.30;2329.60;;;;;;5113995;28;20081;-82
2022/05/16 05:33:46;;;;;;;17.52;7.57;;;384.00;2329.60;;;;;;5113532;28;20039;-81
2022/05/16 05:36:16;;;;;;;16.42;7.00;;;384.10;2329.60;;;;;;5113763;28;20038;-80
2022/05/16 05:38:42;;;;;;;10.63;6.38;;;384.20;2329.60;;;;;;5113880;27;20487;-80
2022/05/16 05:41:09;;;;;;;12.25;6.28;;;384.40;2329.60;;;;;;5113592;28;20105;-80
2022/05/16 05:43:35;;;;;;;12.73;6.75;;;384.40;2329.60;;;;;;5113540;28;20458;-81
2022/05/16 05:46:03;;;;;;;10.38;5.85;;;384.40;2329.60;;;;;;5113355;28;20027;-81
2022/05/16 05:48:29;;;;;;;14.23;6.22;;;384.50;2329.60;;;;;;5113266;28;20481;-78
2022/05/16 05:50:55;;;;;;;20.92;7.38;;;384.60;2329.60;;;;;;5113581;28;20059;-82
2022/05/16 05:53:21;;;;;;;17.13;6.47;;;384.50;2329.60;;;;;;5113134;28;20096;-79
2022/05/16 05:55:47;;;;;;;13.63;7.05;;;384.70;2329.60;;;;;;5113452;28;20034;-82
2022/05/16 05:58:15;;;;;;;12.23;7.22;;;384.70;2329.60;;;;;;5113388;28;20367;-82
2022/05/16 06:00:41;;;;;;;16.42;6.57;;;409.60;2355.20;;;;;;5112978;28;20027;-79
2022/05/16 06:03:07;;;;;;;12.27;6.15;;;409.70;2355.20;;;;;;5113092;28;20034;-81
2022/05/16 06:05:34;;;;;;;11.00;5.35;;;409.90;2355.20;;;;;;5112824;28;20032;-79
2022/05/16 06:08:00;;;;;;;9.75;5.50;;;410.00;2355.20;;;;;;5112699;28;20470;-81
2022/05/16 06:10:26;;;;;;;7.93;5.65;;;410.00;2355.20;;;;;;5113024;28;20024;-80
2022/05/16 06:12:53;;;;;;;11.32;5.55;;;410.20;2355.20;;;;;;5113100;28;20050;-79
2022/05/16 06:15:20;;;;;;;8.20;5.70;;;410.30;2355.20;;;;;;5112649;28;20077;-80
2022/05/16 06:17:46;;;;;;;12.63;7.15;;;410.30;2355.20;;;;;;5113115;28;20546;-79
2022/05/16 06:20:14;;;;;;;8.13;5.00;;;435.20;2355.20;;;;;;5113974;28;20023;-78
2022/05/16 06:22:39;;;;;;;13.05;4.85;;;435.40;2355.20;;;;;;5112887;28;20023;-81
2022/05/16 06:27:54;;;;;;;10.85;5.50;;;435.80;2355.20;;;;;;5114016;28;20034;-78
2022/05/16 06:30:20;;;;;;;12.25;5.70;;;436.10;2355.20;;;;;;5112664;28;20024;-80
2022/05/16 06:32:47;;;;;;;11.07;5.55;;;460.90;2380.80;;;;;;5112954;28;20038;-78
2022/05/16 06:35:13;;;;;;;11.00;5.85;;;461.00;2380.80;;;;;;5113955;28;20031;-80
2022/05/16 06:37:39;;;;;;;10.82;5.80;;;461.10;2380.80;;;;;;5113883;28;20030;-81
2022/05/16 06:40:06;;;;;;;11.52;6.03;;;461.20;2380.80;;;;;;5112951;28;20023;-79
2022/05/16 06:42:31;;;;;;;14.43;5.93;;;461.20;2380.80;;;;;;5112443;28;20550;-78
2022/05/16 06:44:57;;;;;;;11.70;4.93;;;461.40;2380.80;;;;;;5112768;28;20118;-80
2022/05/16 06:47:24;;;;;;;7.90;4.05;;;461.70;2380.80;;;;;;5115123;28;20027;-78
2022/05/16 06:49:51;;;;;;;9.50;4.57;;;486.50;2304.00;;;;;;5116795;28;20031;-80
2022/05/16 06:52:17;;;;;;;14.90;4.38;;;486.60;2304.00;;;;;;5117003;28;20028;-79
2022/05/16 06:54:43;;;;;;;11.27;4.55;;;486.80;2278.40;;;;;;5134209;28;20031;-76
2022/05/16 06:57:10;;;;;;;7.68;4.28;;;486.70;2227.20;;;;;;5134173;28;20051;-80
2022/05/16 06:59:36;;;;;;;8.70;4.43;;;487.00;2227.20;;;;;;5117224;28;20332;-79
2022/05/16 07:02:03;;;;;;;9.55;4.57;;;487.10;2176.00;;;;;;5116797;28;20028;-79
2022/05/16 07:04:29;;;;;;;8.95;4.18;;;487.30;2176.00;;;;;;5117362;28;20047;-79
2022/05/16 07:06:54;;;;;;;10.68;4.32;;;512.10;2150.40;;;;;;5118025;28;20059;-80
2022/05/16 07:09:20;;;;;;;9.23;4.53;;;512.20;2150.40;;;;;;5116656;28;20023;-80
2022/05/16 07:11:46;;;;;;;11.45;4.80;;;512.20;2124.80;;;;;;5117496;28;20030;-79
2022/05/16 07:14:12;;;;;;;9.50;5.07;;;512.30;2124.80;;;;;;5117992;28;20028;-76
2022/05/16 07:16:38;;;;;;;10.88;5.60;;;512.50;2124.80;;;;;;5116029;28;20050;-78
2022/05/16 07:19:04;;;;;;;9.30;5.20;;;512.60;2099.20;;;;;;5115689;28;20030;-78
2022/05/16 07:21:30;;;;;;;13.55;5.53;;;512.80;2099.20;;;;;;5117624;28;20381;-76
2022/05/16 07:23:56;;;;;;;11.35;5.82;;;537.60;2150.40;;;;;;5116344;28;20037;-78
2022/05/16 07:29:07;;;;;;;8.27;5.05;;;538.00;2099.20;;;;;;5117324;28;20050;-79
2022/05/16 07:31:33;;;;;;;9.57;4.60;;;538.20;2073.60;;;;;;5117333;28;20455;-78
2022/05/16 07:34:00;;;;;;;18.50;6.40;;;537.90;2099.20;;;;;;5117720;28;20358;-79
2022/05/16 07:36:26;;;;;;;12.88;6.80;;;538.30;2099.20;;;;;;5116312;28;20467;-78
2022/05/16 07:38:52;;;;;;;10.43;5.90;;;538.20;2073.60;;;;;;5115736;28;20047;-78
2022/05/16 07:41:20;;;;;;;8.50;5.00;;;538.40;2073.60;;;;;;5115948;28;20020;-77
2022/05/16 07:43:45;;;;;;;8.02;5.30;;;563.20;2073.60;;;;;;5117229;28;20515;-79
2022/05/16 07:46:11;;;;;;;19.35;5.57;;;563.20;2073.60;;;;;;5115854;28;20036;-78
2022/05/16 07:48:37;;;;;;;9.98;4.78;;;538.50;2022.40;;;;;;5115949;28;20469;-77
2022/05/16 07:51:03;;;;;;;12.70;5.53;;;563.20;2124.80;;;;;;5116980;28;20466;-77
2022/05/16 07:53:29;;;;;;;7.38;4.05;;;563.50;2022.40;;;;;;5115626;28;20030;-76
2022/05/16 07:55:56;;;;;;;9.35;4.22;;;563.60;1996.80;;;;;;5115468;28;20032;-77
2022/05/16 07:58:24;;;;;;;10.40;4.75;;;563.60;1996.80;;;;;;5116229;27;20470;-78
2022/05/16 08:00:50;;;;;;;16.42;6.50;;;564.00;1945.60;;;;;;5115558;28;20028;-79
2022/05/16 08:03:18;;;;;;;8.70;4.60;;;588.80;1945.60;;;;;;5115712;28;20031;-78
2022/05/16 08:05:44;;;;;;;7.50;4.28;;;589.00;1920.00;;;;;;5115440;28;20039;-77
2022/05/16 08:10:56;;;;;;;8.27;4.38;;;589.30;1868.80;;;;;;5116687;28;20074;-77
2022/05/16 08:13:22;;;;;;;9.02;3.97;;;589.50;1868.80;;;;;;5115022;28;20023;-76
2022/05/16 08:15:48;;;;;;;10.93;4.47;;;589.50;1868.80;;;;;;5115354;28;20368;-77
2022/05/16 08:18:14;;;;;;;12.32;4.63;;;589.70;1868.80;;;;;;5115470;28;20019;-78
2022/05/16 08:20:43;;;;;;;10.23;4.80;;;589.70;1920.00;;;;;;5115104;28;20023;-78
2022/05/16 08:23:11;;;;;;;8.57;3.72;;;614.60;1894.40;;;;;;5115337;28;20023;-80
2022/05/16 08:25:37;;;;;;;7.10;3.78;;;614.80;1894.40;;;;;;5114038;28;20048;-78
2022/05/16 08:28:03;;;;;;;7.28;3.72;;;614.90;1843.20;;;;;;5095386;28;20024;-75
2022/05/16 08:30:28;;;;;;;5.55;3.00;;;615.10;1817.60;;;;;;5094642;28;20120;-76
2022/05/16 08:32:57;;;;;;;8.70;4.40;;;614.80;1766.40;;;;;;5095698;28;20024;-77
2022/05/16 08:35:23;;;;;;;7.65;3.53;;;614.70;1792.00;;;;;;5094072;28;20024;-77
2022/05/16 08:40:58;;;;;;;9.68;4.38;;;615.00;1792.00;;;;;;5095881;28;20081;-75
2022/05/16 08:43:42;;;;;;;10.30;5.07;;;615.30;1766.40;;;;;;5094111;28;20028;-76
2022/05/16 08:46:33;;;;;;;11.07;3.83;;;640.20;1740.80;;;;;;5095450;28;20028;-76
2022/05/16 08:49:14;;;;;;;9.00;4.32;;;640.40;1689.60;;;;;;5093838;28;20030;-75
2022/05/16 08:51:44;;;;;;;9.60;3.63;;;640.40;1689.60;;;;;;5095391;28;20146;-74
2022/05/16 08:54:26;;;;;;;9.90;4.43;;;640.50;1689.60;;;;;;5094002;28;20031;-76
2022/05/16 08:56:53;;;;;;;;;;;640.70;1689.60;;;;;;5094220;28;20031;-74
2022/05/16 08:59:23;;;;;;;6.40;3.88;;;640.60;1689.60;;;;;;5094020;28;19908;-75
2022/05/16 09:01:51;;;;;;;9.10;4.47;;;;;;;;;;5093972;28;20044;-74
2022/05/16 09:04:30;;;;;;;11.40;4.40;;;665.80;1740.80;;;;;;5093105;28;20024;-75
2022/05/16 09:06:58;;;;;;;11.60;5.13;;;665.70;1689.60;;;;;;5094836;28;20479;-74
2022/05/16 09:09:34;;;;;;;10.95;3.88;;;666.00;1715.20;;;;;;5111097;27;20024;-74
2022/05/16 09:12:13;;;;;;;7.60;3.95;;;666.30;1638.40;;;;;;5113019;28;20043;-73
2022/05/16 09:14:48;;;;;;;11.23;5.35;;;666.30;1638.40;;;;;;5115316;27;20378;-75
2022/05/16 09:17:38;;;;;;;9.93;3.38;;;666.30;1612.80;;;;;;5113116;27;20088;-74
2022/05/16 09:20:34;;;;;;;12.52;5.55;;;666.00;1587.20;;;;;;5115738;27;20026;-74
2022/05/16 09:23:20;;;;;;;6.68;3.33;;;666.50;1561.60;;;;;;5107318;28;20031;-77
2022/05/16 09:25:54;;;;;;;7.15;3.40;;;691.40;1587.20;;;;;;5116317;27;20052;-74
2022/05/16 09:28:37;;;;;;;6.72;2.92;;;691.70;1484.80;;;;;;5123575;27;20031;-76
2022/05/16 09:31:13;;;;;;;13.55;6.88;;;666.50;1536.00;;;;;;5115211;28;20050;-76
2022/05/16 09:33:47;;;;;;;6.65;3.67;;;691.20;1561.60;;;;;;5114041;28;20031;-76
2022/05/16 09:36:17;;;;;;;6.55;4.10;;;691.30;1561.60;;;;;;5113844;28;20034;-74
2022/05/16 09:38:45;;;;;;;8.73;4.43;;;691.70;1561.60;;;;;;5113364;28;20169;-76
2022/05/16 09:41:20;;;;;;;8.65;3.53;;;692.10;1561.60;;;;;;5113750;28;20024;-77
2022/05/16 09:43:54;;;;;;;6.53;4.07;;;692.10;1536.00;;;;;;5115014;28;20110;-76
2022/05/16 09:46:35;;;;;;;13.95;8.95;;;716.80;1561.60;;;;;;5113107;28;20462;-75
2022/05/16 09:49:05;;;;;;;6.43;2.83;;;716.80;1536.00;;;;;;5113575;28;20055;-76
2022/05/16 09:51:37;;;;;;;9.27;4.07;;;716.80;1536.00;;;;;;5114943;28;20023;-77
2022/05/16 09:54:31;;;;;;;7.20;4.30;;;716.80;1536.00;;;;;;5115355;28;20072;-75
2022/05/16 09:57:03;;;;;;;9.60;6.43;;;716.90;1536.00;;;;;;5112361;28;20043;-77
2022/05/16 09:59:52;;;;;;;;;;;716.90;1510.40;;;;;;5114770;28;20036;-77
2022/05/16 10:02:37;;;;;;;6.03;3.60;;;716.80;1510.40;;;;;;5111501;28;19998;-76
2022/05/16 10:05:25;;;;;;;9.05;4.03;;;716.80;1510.40;;;;;;5114354;28;20030;-77
2022/05/16 10:08:03;;;;;;;15.10;6.82;;;717.50;1484.80;;;;;;5112976;28;20114;-77
2022/05/16 10:10:37;;;;;;;10.18;4.40;;;742.50;1459.20;;;;;;5113198;28;20057;-76
2022/05/16 10:13:03;;;;;;;7.68;2.92;;;743.00;1459.20;;;;;;5112624;28;20023;-75
2022/05/16 10:15:31;;;;;;;7.50;4.53;;;743.30;1433.60;;;;;;5113118;28;20028;-76
2022/05/16 10:17:59;;;;;;;5.80;2.15;;;768.10;1356.80;;;;;;5113000;28;20046;-78
2022/05/16 10:20:31;;;;;;;8.10;2.70;;;768.10;1331.20;;;;;;5112656;28;20118;-74
2022/05/16 10:22:59;;;;;;;;;;;768.10;1305.60;;;;;;5113453;28;20020;-74
2022/05/16 10:25:32;;;;;;;6.65;2.35;;;743.10;1331.20;;;;;;5112167;28;19923;-74
2022/05/16 10:28:00;;;;;;;6.55;2.25;;;742.90;1331.20;;;;;;5143172;27;20030;-76
2022/05/16 10:30:27;;;;;;;5.53;2.42;;;742.70;1356.80;;;;;;5112935;28;20023;-74
2022/05/16 10:36:07;;;;;;;9.10;3.20;;;743.10;1356.80;;;;;;5112936;28;20058;-74
2022/05/16 10:39:08;;;;;;;7.75;3.22;;;743.30;1331.20;;;;;;5126872;28;20429;-76
2022/05/16 10:42:03;;;;;;;9.90;3.83;;;768.20;1331.20;;;;;;5092924;28;20028;-75
2022/05/16 10:45:06;;;;;;;7.70;3.13;;;768.80;1305.60;;;;;;5092637;28;20043;-74
2022/05/16 10:48:01;;;;;;;6.03;3.40;;;768.30;1305.60;;;;;;5092176;28;20047;-73
2022/05/16 10:50:46;;;;;;;8.15;3.78;;;768.60;1305.60;;;;;;5094983;28;20024;-73
2022/05/16 10:53:20;;;;;;;5.53;2.92;;;793.60;1331.20;;;;;;5092340;28;20035;-75
2022/05/16 10:56:00;;;;;;;8.52;3.92;;;768.40;1331.20;;;;;;5091853;28;20024;-76
2022/05/16 10:58:45;;;;;;;6.53;4.38;;;793.70;1356.80;;;;;;5112642;28;20077;-76
2022/05/16 11:01:27;;;;;;;9.93;5.57;;;768.80;1305.60;;;;;;5112183;28;20055;-74
2022/05/16 11:04:13;;;;;;;15.02;4.35;;;794.00;1331.20;;;;;;5113767;28;20027;-73
2022/05/16 11:07:05;;;;;;;8.43;4.30;;;794.20;1305.60;;;;;;5112353;28;20028;-74
2022/05/16 11:10:05;;;;;;;5.97;3.20;;;794.00;1305.60;;;;;;5112121;28;20114;-73
2022/05/16 11:13:00;;;;;;;8.38;2.75;;;794.00;1305.60;;;;;;5112380;28;20027;-74
2022/05/16 11:15:42;;;;;;;8.95;2.88;;;793.90;1305.60;;;;;;5096477;28;20050;-76
2022/05/16 11:18:23;;;;;;;8.32;2.70;;;794.20;1305.60;;;;;;5092097;28;20035;-73
2022/05/16 11:20:57;;;;;;;7.32;2.80;;;793.90;1305.60;;;;;;5091898;28;20028;-74
2022/05/16 11:23:50;;;;;;;4.80;2.60;;;794.00;1331.20;;;;;;5091643;28;20032;-73
2022/05/16 11:26:18;;;;;;;5.93;2.90;;;793.70;1305.60;;;;;;5091535;28;20047;-75
2022/05/16 11:31:45;;;;;;;8.45;2.70;;;794.00;1305.60;;;;;;5092891;28;20043;-74
2022/05/16 11:34:22;;;;;;;5.75;3.35;;;794.30;1280.00;;;;;;5094892;28;20043;-76
2022/05/16 11:37:08;;;;;;;7.20;3.17;;;819.60;1305.60;;;;;;5095247;28;20077;-74
2022/05/16 11:39:47;;;;;;;8.35;2.72;;;819.60;1254.40;;;;;;5095051;28;20035;-76
2022/05/16 11:42:21;;;;;;;5.03;2.75;;;819.40;1254.40;;;;;;5096966;28;20026;-74
2022/05/16 11:45:03;;;;;;;10.65;4.90;;;819.70;1305.60;;;;;;5094920;28;20032;-74
2022/05/16 11:48:15;;;;;;;7.35;3.08;;;820.10;1280.00;;;;;;5096215;28;20016;-77
2022/05/16 11:51:22;;;;;;;6.43;3.42;;;844.90;1305.60;;;;;;5092826;28;20538;-75
2022/05/16 11:53:58;;;;;;;6.55;2.90;;;845.20;1305.60;;;;;;5082726;28;20024;-74
2022/05/16 12:02:34;;;;;;;8.77;3.33;;;845.40;1280.00;;;;;;5095778;28;20043;-77
2022/05/16 12:05:28;;;;;;;6.45;3.45;;;845.70;1254.40;;;;;;5095423;28;20490;-76
2022/05/16 12:08:14;;;;;;;5.72;2.90;;;845.60;1254.40;;;;;;5095226;28;20038;-75
2022/05/16 12:11:03;;;;;;;8.40;3.53;;;845.20;1228.80;;;;;;5095168;28;20401;-75
2022/05/16 12:13:34;;;;;;;9.13;3.22;;;845.20;1254.40;;;;;;5094481;28;20077;-75
2022/05/16 12:16:12;;;;;;;8.45;6.47;;;845.20;1254.40;;;;;;5094804;28;20471;-76
2022/05/16 12:18:43;;;;;;;7.05;3.78;;;845.00;1305.60;;;;;;5094258;28;20386;-77
2022/05/16 12:21:33;;;;;;;5.88;2.90;;;845.20;1254.40;;;;;;5096042;28;20020;-74
2022/05/16 12:24:20;;;;;;;6.85;3.00;;;820.10;1228.80;;;;;;5090862;28;20398;-74
2022/05/16 12:27:03;;;;;;;6.03;2.78;;;845.20;1280.00;;;;;;5094878;28;20119;-74
2022/05/16 12:29:38;;;;;;;8.90;2.53;;;845.20;1280.00;;;;;;5094378;28;20468;-75
2022/05/16 12:32:04;;;;;;;6.63;2.60;;;845.50;1280.00;;;;;;5095339;28;20491;-77
2022/05/16 12:34:29;;;;;;;6.88;2.78;;;845.40;1228.80;;;;;;5095600;28;20081;-76
2022/05/16 12:37:01;;;;;;;10.70;3.10;;;845.40;1228.80;;;;;;5095566;28;20103;-80
2022/05/16 12:39:44;;;;;;;7.95;3.53;;;845.40;1254.40;;;;;;5095296;28;20801;-80
2022/05/16 12:42:22;;;;;;;7.45;3.40;;;820.10;1228.80;;;;;;5094549;28;20028;-78
2022/05/16 12:45:02;;;;;;;5.73;2.53;;;820.00;1228.80;;;;;;5095154;28;20022;-80
2022/05/16 12:48:01;;;;;;;8.02;3.10;;;820.10;1228.80;;;;;;5094180;28;20254;-81
2022/05/16 12:50:39;;;;;;;7.70;3.10;;;845.20;1280.00;;;;;;5094305;28;20028;-80
2022/05/16 12:53:35;;;;;;;5.53;2.83;;;845.40;1228.80;;;;;;5095200;28;20082;-78
2022/05/16 12:56:13;;;;;;;6.28;2.63;;;845.30;1280.00;;;;;;5094448;28;20528;-78
2022/05/16 12:58:44;;;;;;;13.52;4.60;;;845.70;1254.40;;;;;;5094186;28;20376;-78
2022/05/16 13:01:11;;;;;;;3.95;2.20;;;870.60;1254.40;;;;;;5093521;28;20031;-79
2022/05/16 13:03:48;;;;;;;7.65;3.05;;;870.50;1228.80;;;;;;5093672;28;20032;-79
2022/05/16 13:06:39;;;;;;;6.00;2.65;;;870.50;1254.40;;;;;;5094018;28;20028;-79
2022/05/16 13:09:35;;;;;;;5.32;3.53;;;870.60;1228.80;;;;;;5093177;28;20062;-78
2022/05/16 13:12:13;;;;;;;5.55;2.85;;;870.70;1254.40;;;;;;5093364;28;20020;-79
2022/05/16 13:14:58;;;;;;;6.93;2.75;;;870.90;1254.40;;;;;;5092256;28;20020;-77
2022/05/16 13:17:38;;;;;;;4.50;2.72;;;870.40;1228.80;;;;;;5093435;28;20028;-79